Ashley, MI

7:53 AM EST on December 19, 2014 (GMT -0500)
Hoovers Corners | Change Station
CLOSE
Current Station
Personal Weather Station
Location: Elsie, MI
Elevation: 741 ft
Nearby Weather Stations

Elev 741 ft 43.10 °N, 84.34 °W | Updated 4 minutes ago

Overcast
Overcast
23.8 °F
Feels Like 16 °F
N
6.0
Wind Variable Wind from North
Gusts 7.0 mph

Today
High -- | Low -- °F
--% Chance of Precip.
Yesterday
High -- | Low -- °F
Precip. -- in
8:05 AM 5:04 PM
Waning Crescent, 8% visible
Pressure 30.27 in
Visibility 10.0 miles
Clouds Overcast 1800 ft
Windchill 16 °F
Dew Point 20 °F
Humidity 84%
Rainfall 0.00 in
Snow Depth Not available.
UV 0 out of 12
Pollen .10 out of 12
Air Quality Not available.
Flu Activity Not available.
METAR KAMN 191232Z AUTO 02003KT 10SM OVC018 M04/M07 A3027 RMK AO2 T10451072

More Conditions Fewer Conditions

Pressure 30.27 in
Visibility 10.0 miles
Clouds Overcast 1800 ft
Windchill 16 °F
Dew Point 20 °F
Humidity 84%
Rainfall 0.00 in
Snow Depth Not available.
UV 0 out of 12
Pollen .10 out of 12
Air Quality Not available.
Flu Activity Not available.
METAR KAMN 191232Z AUTO 02003KT 10SM OVC018 M04/M07 A3027 RMK AO2 T10451072

More Conditions Fewer Conditions

10-Day Weather Forecast

Almanac

Astronomy

Dec. 19, 2014 Rise Set
Actual Time
Civil Twilight
Nautical Twilight
Astronomical Twilight
Moon
Length of Visible Light
Length of Day
Tomorrow will be .
, % of the Moon is Illuminated

Today's Extremes

State Highs State Lows

Community

WunderPhotos

Upload Photos

1,778,975 photos uploaded!

WunderBlogs® & News

Nearby

Air Quality

  Air Quality AQ Index Pollutant
Not available.

Snow Depth

Station Depth Elevation

Earthquake Activity

City Distance Mag. Time & Date
Minimum magnitude displayed is 2.5.

Coastal Water Temperatures

Place Temperature

Nearby Weather Stations